sensor_id;sensor_type;location;lat;lon;timestamp;P1;durP1;ratioP1;P2;durP2;ratioP2
17864;SDS011;9058;52.018;4.202;2024-01-06T00:00:45;8.10;;;6.05;;
17864;SDS011;9058;52.018;4.202;2024-01-06T00:03:15;7.18;;;6.55;;
17864;SDS011;9058;52.018;4.202;2024-01-06T00:05:42;7.78;;;7.20;;
17864;SDS011;9058;52.018;4.202;2024-01-06T00:08:09;8.63;;;6.25;;
17864;SDS011;9058;52.018;4.202;2024-01-06T00:10:35;7.07;;;6.25;;
17864;SDS011;9058;52.018;4.202;2024-01-06T00:13:02;7.53;;;6.93;;
17864;SDS011;9058;52.018;4.202;2024-01-06T00:15:29;8.35;;;7.60;;
17864;SDS011;9058;52.018;4.202;2024-01-06T00:17:55;9.02;;;6.15;;
17864;SDS011;9058;52.018;4.202;2024-01-06T00:20:23;6.50;;;5.78;;
17864;SDS011;9058;52.018;4.202;2024-01-06T00:22:49;6.60;;;5.90;;
17864;SDS011;9058;52.018;4.202;2024-01-06T00:25:16;9.68;;;5.95;;
17864;SDS011;9058;52.018;4.202;2024-01-06T00:27:42;6.65;;;6.05;;
17864;SDS011;9058;52.018;4.202;2024-01-06T00:30:09;12.90;;;6.45;;
17864;SDS011;9058;52.018;4.202;2024-01-06T00:32:35;6.75;;;6.22;;
17864;SDS011;9058;52.018;4.202;2024-01-06T00:35:02;6.13;;;5.53;;
17864;SDS011;9058;52.018;4.202;2024-01-06T00:37:31;6.50;;;5.85;;
17864;SDS011;9058;52.018;4.202;2024-01-06T00:39:57;6.72;;;6.10;;
17864;SDS011;9058;52.018;4.202;2024-01-06T00:42:23;5.93;;;5.32;;
17864;SDS011;9058;52.018;4.202;2024-01-06T00:44:50;7.10;;;5.28;;
17864;SDS011;9058;52.018;4.202;2024-01-06T00:47:16;6.20;;;5.70;;
17864;SDS011;9058;52.018;4.202;2024-01-06T00:49:43;5.85;;;5.45;;
17864;SDS011;9058;52.018;4.202;2024-01-06T00:52:10;5.38;;;4.85;;
17864;SDS011;9058;52.018;4.202;2024-01-06T00:54:38;5.95;;;5.22;;
17864;SDS011;9058;52.018;4.202;2024-01-06T00:57:04;6.28;;;5.60;;
17864;SDS011;9058;52.018;4.202;2024-01-06T00:59:31;5.75;;;5.18;;
17864;SDS011;9058;52.018;4.202;2024-01-06T01:01:58;5.80;;;4.90;;
17864;SDS011;9058;52.018;4.202;2024-01-06T01:04:24;6.05;;;5.45;;
17864;SDS011;9058;52.018;4.202;2024-01-06T01:06:51;6.85;;;6.20;;
17864;SDS011;9058;52.018;4.202;2024-01-06T01:09:17;7.72;;;5.20;;
17864;SDS011;9058;52.018;4.202;2024-01-06T01:11:45;4.70;;;4.28;;
17864;SDS011;9058;52.018;4.202;2024-01-06T01:14:11;5.93;;;4.38;;
17864;SDS011;9058;52.018;4.202;2024-01-06T01:16:38;9.95;;;4.50;;
17864;SDS011;9058;52.018;4.202;2024-01-06T01:19:04;5.43;;;3.80;;
17864;SDS011;9058;52.018;4.202;2024-01-06T01:21:31;5.90;;;4.72;;
17864;SDS011;9058;52.018;4.202;2024-01-06T01:23:57;5.50;;;5.20;;
17864;SDS011;9058;52.018;4.202;2024-01-06T01:26:23;5.47;;;4.97;;
17864;SDS011;9058;52.018;4.202;2024-01-06T01:28:51;4.95;;;4.38;;
17864;SDS011;9058;52.018;4.202;2024-01-06T01:31:18;14.55;;;5.45;;
17864;SDS011;9058;52.018;4.202;2024-01-06T01:33:44;5.60;;;5.18;;
17864;SDS011;9058;52.018;4.202;2024-01-06T01:36:10;5.30;;;4.88;;
17864;SDS011;9058;52.018;4.202;2024-01-06T01:38:38;6.45;;;4.68;;
17864;SDS011;9058;52.018;4.202;2024-01-06T01:41:05;9.35;;;5.75;;
17864;SDS011;9058;52.018;4.202;2024-01-06T01:43:31;6.78;;;4.82;;
17864;SDS011;9058;52.018;4.202;2024-01-06T01:45:59;7.30;;;5.15;;
17864;SDS011;9058;52.018;4.202;2024-01-06T01:48:26;5.47;;;4.85;;
17864;SDS011;9058;52.018;4.202;2024-01-06T01:50:54;6.72;;;4.22;;
17864;SDS011;9058;52.018;4.202;2024-01-06T01:53:21;6.20;;;5.80;;
17864;SDS011;9058;52.018;4.202;2024-01-06T01:55:49;9.02;;;5.05;;
17864;SDS011;9058;52.018;4.202;2024-01-06T01:58:16;8.77;;;6.70;;
17864;SDS011;9058;52.018;4.202;2024-01-06T02:00:42;6.05;;;5.40;;
17864;SDS011;9058;52.018;4.202;2024-01-06T02:03:10;7.72;;;6.45;;
17864;SDS011;9058;52.018;4.202;2024-01-06T02:05:38;6.22;;;5.60;;
17864;SDS011;9058;52.018;4.202;2024-01-06T02:08:04;7.00;;;6.20;;
17864;SDS011;9058;52.018;4.202;2024-01-06T02:10:32;6.07;;;5.53;;
17864;SDS011;9058;52.018;4.202;2024-01-06T02:13:06;7.33;;;6.43;;
17864;SDS011;9058;52.018;4.202;2024-01-06T02:15:33;6.00;;;5.60;;
17864;SDS011;9058;52.018;4.202;2024-01-06T02:17:59;6.63;;;5.28;;
17864;SDS011;9058;52.018;4.202;2024-01-06T02:20:27;5.75;;;5.28;;
17864;SDS011;9058;52.018;4.202;2024-01-06T02:22:56;6.38;;;5.85;;
17864;SDS011;9058;52.018;4.202;2024-01-06T02:25:24;6.68;;;6.03;;
17864;SDS011;9058;52.018;4.202;2024-01-06T02:27:51;6.07;;;5.65;;
17864;SDS011;9058;52.018;4.202;2024-01-06T02:30:18;7.35;;;5.50;;
17864;SDS011;9058;52.018;4.202;2024-01-06T02:32:44;7.32;;;6.65;;
17864;SDS011;9058;52.018;4.202;2024-01-06T02:35:11;6.28;;;5.68;;
17864;SDS011;9058;52.018;4.202;2024-01-06T02:37:37;7.68;;;6.78;;
17864;SDS011;9058;52.018;4.202;2024-01-06T02:40:05;10.57;;;6.07;;
17864;SDS011;9058;52.018;4.202;2024-01-06T02:42:31;6.75;;;6.20;;
17864;SDS011;9058;52.018;4.202;2024-01-06T02:44:58;7.32;;;6.68;;
17864;SDS011;9058;52.018;4.202;2024-01-06T02:47:24;9.82;;;6.50;;
17864;SDS011;9058;52.018;4.202;2024-01-06T02:49:50;6.88;;;6.38;;
17864;SDS011;9058;52.018;4.202;2024-01-06T02:52:17;8.40;;;7.53;;
17864;SDS011;9058;52.018;4.202;2024-01-06T02:54:43;6.85;;;6.15;;
17864;SDS011;9058;52.018;4.202;2024-01-06T02:57:11;8.88;;;6.88;;
17864;SDS011;9058;52.018;4.202;2024-01-06T02:59:38;7.32;;;6.53;;
17864;SDS011;9058;52.018;4.202;2024-01-06T03:02:04;7.63;;;6.35;;
17864;SDS011;9058;52.018;4.202;2024-01-06T03:04:31;7.15;;;6.65;;
17864;SDS011;9058;52.018;4.202;2024-01-06T03:06:58;5.97;;;5.57;;
17864;SDS011;9058;52.018;4.202;2024-01-06T03:09:25;10.40;;;6.35;;
17864;SDS011;9058;52.018;4.202;2024-01-06T03:11:51;9.10;;;7.15;;
17864;SDS011;9058;52.018;4.202;2024-01-06T03:14:19;8.60;;;6.72;;
17864;SDS011;9058;52.018;4.202;2024-01-06T03:16:45;7.93;;;6.63;;
17864;SDS011;9058;52.018;4.202;2024-01-06T03:19:11;7.25;;;5.68;;
17864;SDS011;9058;52.018;4.202;2024-01-06T03:21:38;7.53;;;6.82;;
17864;SDS011;9058;52.018;4.202;2024-01-06T03:24:06;7.95;;;7.00;;
17864;SDS011;9058;52.018;4.202;2024-01-06T03:26:33;6.40;;;5.80;;
17864;SDS011;9058;52.018;4.202;2024-01-06T03:28:59;8.85;;;6.97;;
17864;SDS011;9058;52.018;4.202;2024-01-06T03:31:29;8.17;;;6.43;;
17864;SDS011;9058;52.018;4.202;2024-01-06T03:33:55;7.07;;;6.35;;
17864;SDS011;9058;52.018;4.202;2024-01-06T03:36:21;6.80;;;6.05;;
17864;SDS011;9058;52.018;4.202;2024-01-06T03:38:48;7.40;;;6.75;;
17864;SDS011;9058;52.018;4.202;2024-01-06T03:41:15;8.13;;;6.05;;
17864;SDS011;9058;52.018;4.202;2024-01-06T03:43:41;8.88;;;5.57;;
17864;SDS011;9058;52.018;4.202;2024-01-06T03:46:08;8.15;;;5.97;;
17864;SDS011;9058;52.018;4.202;2024-01-06T03:48:36;8.30;;;6.57;;
17864;SDS011;9058;52.018;4.202;2024-01-06T03:51:03;6.18;;;5.53;;
17864;SDS011;9058;52.018;4.202;2024-01-06T03:53:29;5.88;;;5.47;;
17864;SDS011;9058;52.018;4.202;2024-01-06T03:55:56;8.95;;;5.78;;
17864;SDS011;9058;52.018;4.202;2024-01-06T03:58:24;6.90;;;6.40;;
17864;SDS011;9058;52.018;4.202;2024-01-06T04:00:50;6.18;;;5.47;;
17864;SDS011;9058;52.018;4.202;2024-01-06T04:03:16;10.57;;;6.40;;
17864;SDS011;9058;52.018;4.202;2024-01-06T04:05:47;7.72;;;6.97;;
17864;SDS011;9058;52.018;4.202;2024-01-06T04:08:13;7.97;;;7.28;;
17864;SDS011;9058;52.018;4.202;2024-01-06T04:10:40;6.78;;;6.32;;
17864;SDS011;9058;52.018;4.202;2024-01-06T04:13:06;6.85;;;5.93;;
17864;SDS011;9058;52.018;4.202;2024-01-06T04:15:33;6.75;;;5.97;;
17864;SDS011;9058;52.018;4.202;2024-01-06T04:18:01;6.95;;;5.70;;
17864;SDS011;9058;52.018;4.202;2024-01-06T04:20:28;5.95;;;5.35;;
17864;SDS011;9058;52.018;4.202;2024-01-06T04:22:56;6.25;;;5.75;;
17864;SDS011;9058;52.018;4.202;2024-01-06T04:25:22;7.55;;;6.80;;
17864;SDS011;9058;52.018;4.202;2024-01-06T04:27:49;9.43;;;5.72;;
17864;SDS011;9058;52.018;4.202;2024-01-06T04:30:15;6.35;;;5.43;;
17864;SDS011;9058;52.018;4.202;2024-01-06T04:32:42;6.05;;;5.45;;
17864;SDS011;9058;52.018;4.202;2024-01-06T04:35:09;7.33;;;6.63;;
17864;SDS011;9058;52.018;4.202;2024-01-06T04:37:37;6.03;;;5.47;;
17864;SDS011;9058;52.018;4.202;2024-01-06T04:40:05;6.03;;;5.53;;
17864;SDS011;9058;52.018;4.202;2024-01-06T04:42:32;9.20;;;6.38;;
17864;SDS011;9058;52.018;4.202;2024-01-06T04:44:59;6.13;;;5.63;;
17864;SDS011;9058;52.018;4.202;2024-01-06T04:47:25;9.55;;;5.43;;
17864;SDS011;9058;52.018;4.202;2024-01-06T04:49:52;5.32;;;4.65;;
17864;SDS011;9058;52.018;4.202;2024-01-06T04:52:19;5.15;;;4.70;;
17864;SDS011;9058;52.018;4.202;2024-01-06T04:54:45;5.43;;;4.93;;
17864;SDS011;9058;52.018;4.202;2024-01-06T04:57:14;7.27;;;4.77;;
17864;SDS011;9058;52.018;4.202;2024-01-06T04:59:50;6.35;;;5.72;;
17864;SDS011;9058;52.018;4.202;2024-01-06T05:02:16;5.82;;;5.28;;
17864;SDS011;9058;52.018;4.202;2024-01-06T05:04:43;5.13;;;4.65;;
17864;SDS011;9058;52.018;4.202;2024-01-06T05:07:09;5.53;;;5.00;;
17864;SDS011;9058;52.018;4.202;2024-01-06T05:09:35;6.07;;;4.50;;
17864;SDS011;9058;52.018;4.202;2024-01-06T05:12:02;4.60;;;4.30;;
17864;SDS011;9058;52.018;4.202;2024-01-06T05:14:29;7.45;;;5.68;;
17864;SDS011;9058;52.018;4.202;2024-01-06T05:16:56;7.30;;;6.60;;
17864;SDS011;9058;52.018;4.202;2024-01-06T05:19:22;6.27;;;5.80;;
17864;SDS011;9058;52.018;4.202;2024-01-06T05:21:49;6.95;;;4.93;;
17864;SDS011;9058;52.018;4.202;2024-01-06T05:24:16;6.03;;;5.55;;
17864;SDS011;9058;52.018;4.202;2024-01-06T05:26:44;6.82;;;6.25;;
17864;SDS011;9058;52.018;4.202;2024-01-06T05:29:10;5.97;;;5.68;;
17864;SDS011;9058;52.018;4.202;2024-01-06T05:31:38;6.35;;;5.25;;
17864;SDS011;9058;52.018;4.202;2024-01-06T05:34:04;7.93;;;7.17;;
17864;SDS011;9058;52.018;4.202;2024-01-06T05:36:31;6.47;;;6.07;;
17864;SDS011;9058;52.018;4.202;2024-01-06T05:38:57;9.43;;;6.83;;
17864;SDS011;9058;52.018;4.202;2024-01-06T05:41:24;8.55;;;7.75;;
17864;SDS011;9058;52.018;4.202;2024-01-06T05:43:51;7.93;;;7.13;;
17864;SDS011;9058;52.018;4.202;2024-01-06T05:46:20;8.00;;;7.20;;
17864;SDS011;9058;52.018;4.202;2024-01-06T05:48:51;9.45;;;6.80;;
17864;SDS011;9058;52.018;4.202;2024-01-06T05:51:17;8.33;;;7.27;;
17864;SDS011;9058;52.018;4.202;2024-01-06T05:53:44;7.03;;;6.00;;
17864;SDS011;9058;52.018;4.202;2024-01-06T05:56:10;7.60;;;6.90;;
17864;SDS011;9058;52.018;4.202;2024-01-06T05:58:36;10.40;;;8.68;;
17864;SDS011;9058;52.018;4.202;2024-01-06T06:01:03;7.53;;;6.83;;
17864;SDS011;9058;52.018;4.202;2024-01-06T06:03:29;10.75;;;7.60;;
17864;SDS011;9058;52.018;4.202;2024-01-06T06:05:57;6.68;;;6.00;;
17864;SDS011;9058;52.018;4.202;2024-01-06T06:08:23;7.75;;;7.18;;
17864;SDS011;9058;52.018;4.202;2024-01-06T06:10:50;8.38;;;7.47;;
17864;SDS011;9058;52.018;4.202;2024-01-06T06:13:26;9.50;;;8.80;;
17864;SDS011;9058;52.018;4.202;2024-01-06T06:15:52;7.87;;;7.00;;
17864;SDS011;9058;52.018;4.202;2024-01-06T06:18:19;7.55;;;6.57;;
17864;SDS011;9058;52.018;4.202;2024-01-06T06:20:46;6.57;;;6.07;;
17864;SDS011;9058;52.018;4.202;2024-01-06T06:23:14;6.68;;;6.25;;
17864;SDS011;9058;52.018;4.202;2024-01-06T06:25:40;7.07;;;6.47;;
17864;SDS011;9058;52.018;4.202;2024-01-06T06:28:07;7.43;;;6.65;;
17864;SDS011;9058;52.018;4.202;2024-01-06T06:30:34;7.20;;;6.68;;
17864;SDS011;9058;52.018;4.202;2024-01-06T06:33:01;7.50;;;5.63;;
17864;SDS011;9058;52.018;4.202;2024-01-06T06:35:28;8.18;;;7.47;;
17864;SDS011;9058;52.018;4.202;2024-01-06T06:37:55;6.10;;;5.72;;
17864;SDS011;9058;52.018;4.202;2024-01-06T06:40:23;6.18;;;5.65;;
17864;SDS011;9058;52.018;4.202;2024-01-06T06:42:50;5.82;;;5.40;;
17864;SDS011;9058;52.018;4.202;2024-01-06T06:45:16;7.78;;;7.05;;
17864;SDS011;9058;52.018;4.202;2024-01-06T06:47:45;7.25;;;6.57;;
17864;SDS011;9058;52.018;4.202;2024-01-06T06:50:12;7.00;;;6.50;;
17864;SDS011;9058;52.018;4.202;2024-01-06T06:52:38;8.00;;;5.03;;
17864;SDS011;9058;52.018;4.202;2024-01-06T06:55:05;6.72;;;5.70;;
17864;SDS011;9058;52.018;4.202;2024-01-06T06:57:33;6.10;;;5.63;;
17864;SDS011;9058;52.018;4.202;2024-01-06T07:00:00;7.00;;;6.50;;
17864;SDS011;9058;52.018;4.202;2024-01-06T07:02:26;7.60;;;7.00;;
17864;SDS011;9058;52.018;4.202;2024-01-06T07:04:52;7.07;;;6.65;;
17864;SDS011;9058;52.018;4.202;2024-01-06T07:07:19;6.72;;;6.20;;
17864;SDS011;9058;52.018;4.202;2024-01-06T07:09:45;6.60;;;6.20;;
17864;SDS011;9058;52.018;4.202;2024-01-06T07:12:12;7.47;;;7.03;;
17864;SDS011;9058;52.018;4.202;2024-01-06T07:14:40;6.68;;;6.38;;
17864;SDS011;9058;52.018;4.202;2024-01-06T07:17:06;7.45;;;5.97;;
17864;SDS011;9058;52.018;4.202;2024-01-06T07:19:34;6.22;;;5.82;;
17864;SDS011;9058;52.018;4.202;2024-01-06T07:22:00;7.25;;;6.03;;
17864;SDS011;9058;52.018;4.202;2024-01-06T07:24:27;6.35;;;5.95;;
17864;SDS011;9058;52.018;4.202;2024-01-06T07:26:53;6.82;;;6.22;;
17864;SDS011;9058;52.018;4.202;2024-01-06T07:29:19;7.47;;;6.97;;
17864;SDS011;9058;52.018;4.202;2024-01-06T07:31:47;6.35;;;5.88;;
17864;SDS011;9058;52.018;4.202;2024-01-06T07:34:14;6.50;;;5.97;;
17864;SDS011;9058;52.018;4.202;2024-01-06T07:36:41;7.15;;;6.43;;
17864;SDS011;9058;52.018;4.202;2024-01-06T07:39:07;6.60;;;6.03;;
17864;SDS011;9058;52.018;4.202;2024-01-06T07:41:34;5.97;;;5.68;;
17864;SDS011;9058;52.018;4.202;2024-01-06T07:44:01;9.05;;;6.55;;
17864;SDS011;9058;52.018;4.202;2024-01-06T07:46:28;7.23;;;6.40;;
17864;SDS011;9058;52.018;4.202;2024-01-06T07:48:57;6.25;;;5.78;;
17864;SDS011;9058;52.018;4.202;2024-01-06T07:51:24;6.60;;;6.10;;
17864;SDS011;9058;52.018;4.202;2024-01-06T07:53:51;7.05;;;6.35;;
17864;SDS011;9058;52.018;4.202;2024-01-06T07:56:17;6.73;;;6.23;;
17864;SDS011;9058;52.018;4.202;2024-01-06T07:58:44;5.85;;;5.55;;
17864;SDS011;9058;52.018;4.202;2024-01-06T08:01:10;6.68;;;6.13;;
17864;SDS011;9058;52.018;4.202;2024-01-06T08:03:37;7.00;;;6.40;;
17864;SDS011;9058;52.018;4.202;2024-01-06T08:06:05;6.93;;;6.33;;
17864;SDS011;9058;52.018;4.202;2024-01-06T08:08:31;6.93;;;6.33;;
17864;SDS011;9058;52.018;4.202;2024-01-06T08:10:58;6.50;;;5.97;;
17864;SDS011;9058;52.018;4.202;2024-01-06T08:13:24;5.88;;;5.53;;
17864;SDS011;9058;52.018;4.202;2024-01-06T08:15:50;6.67;;;6.17;;
17864;SDS011;9058;52.018;4.202;2024-01-06T08:18:17;5.33;;;4.87;;
17864;SDS011;9058;52.018;4.202;2024-01-06T08:20:44;5.83;;;5.37;;
17864;SDS011;9058;52.018;4.202;2024-01-06T08:23:13;5.50;;;5.07;;
17864;SDS011;9058;52.018;4.202;2024-01-06T08:25:39;5.73;;;5.33;;
17864;SDS011;9058;52.018;4.202;2024-01-06T08:28:06;7.63;;;6.83;;
17864;SDS011;9058;52.018;4.202;2024-01-06T08:30:32;9.80;;;6.57;;
17864;SDS011;9058;52.018;4.202;2024-01-06T08:33:00;5.80;;;5.43;;
17864;SDS011;9058;52.018;4.202;2024-01-06T08:35:26;5.77;;;5.47;;
17864;SDS011;9058;52.018;4.202;2024-01-06T08:37:53;6.93;;;6.53;;
17864;SDS011;9058;52.018;4.202;2024-01-06T08:40:21;6.30;;;5.87;;
17864;SDS011;9058;52.018;4.202;2024-01-06T08:42:47;6.63;;;5.35;;
17864;SDS011;9058;52.018;4.202;2024-01-06T08:45:14;6.43;;;5.50;;
17864;SDS011;9058;52.018;4.202;2024-01-06T08:47:40;5.57;;;5.17;;
17864;SDS011;9058;52.018;4.202;2024-01-06T08:50:07;7.23;;;6.67;;
17864;SDS011;9058;52.018;4.202;2024-01-06T08:52:33;5.45;;;4.95;;
17864;SDS011;9058;52.018;4.202;2024-01-06T08:55:00;5.28;;;4.88;;
17864;SDS011;9058;52.018;4.202;2024-01-06T08:57:28;6.45;;;4.88;;
17864;SDS011;9058;52.018;4.202;2024-01-06T08:59:55;5.60;;;5.13;;
17864;SDS011;9058;52.018;4.202;2024-01-06T09:02:21;6.75;;;6.20;;
17864;SDS011;9058;52.018;4.202;2024-01-06T09:04:48;5.88;;;5.47;;
17864;SDS011;9058;52.018;4.202;2024-01-06T09:07:15;5.68;;;5.38;;
17864;SDS011;9058;52.018;4.202;2024-01-06T09:09:42;6.97;;;6.18;;
17864;SDS011;9058;52.018;4.202;2024-01-06T09:12:08;6.95;;;6.35;;
17864;SDS011;9058;52.018;4.202;2024-01-06T09:14:36;6.13;;;5.40;;
17864;SDS011;9058;52.018;4.202;2024-01-06T09:17:02;6.22;;;5.72;;
17864;SDS011;9058;52.018;4.202;2024-01-06T09:19:29;7.05;;;6.45;;
17864;SDS011;9058;52.018;4.202;2024-01-06T09:21:56;6.93;;;6.00;;
17864;SDS011;9058;52.018;4.202;2024-01-06T09:24:22;6.67;;;5.93;;
17864;SDS011;9058;52.018;4.202;2024-01-06T09:26:48;6.67;;;6.07;;
17864;SDS011;9058;52.018;4.202;2024-01-06T09:29:16;7.05;;;6.45;;
17864;SDS011;9058;52.018;4.202;2024-01-06T09:31:44;6.35;;;5.90;;
17864;SDS011;9058;52.018;4.202;2024-01-06T09:34:10;6.68;;;5.80;;
17864;SDS011;9058;52.018;4.202;2024-01-06T09:36:37;6.82;;;6.20;;
17864;SDS011;9058;52.018;4.202;2024-01-06T09:39:03;10.20;;;6.00;;
17864;SDS011;9058;52.018;4.202;2024-01-06T09:41:30;7.47;;;6.20;;
17864;SDS011;9058;52.018;4.202;2024-01-06T09:43:57;5.95;;;5.55;;
17864;SDS011;9058;52.018;4.202;2024-01-06T09:46:24;6.47;;;5.87;;
17864;SDS011;9058;52.018;4.202;2024-01-06T09:48:53;6.30;;;5.80;;
17864;SDS011;9058;52.018;4.202;2024-01-06T09:51:19;7.00;;;5.45;;
17864;SDS011;9058;52.018;4.202;2024-01-06T09:53:48;5.65;;;5.22;;
17864;SDS011;9058;52.018;4.202;2024-01-06T09:56:15;5.93;;;4.78;;
17864;SDS011;9058;52.018;4.202;2024-01-06T09:58:41;4.70;;;4.40;;
17864;SDS011;9058;52.018;4.202;2024-01-06T10:01:09;4.57;;;4.22;;
17864;SDS011;9058;52.018;4.202;2024-01-06T10:03:37;4.57;;;4.30;;
17864;SDS011;9058;52.018;4.202;2024-01-06T10:06:05;5.73;;;5.20;;
17864;SDS011;9058;52.018;4.202;2024-01-06T10:08:32;8.77;;;4.67;;
17864;SDS011;9058;52.018;4.202;2024-01-06T10:11:00;5.03;;;4.70;;
17864;SDS011;9058;52.018;4.202;2024-01-06T10:13:26;6.22;;;5.18;;
17864;SDS011;9058;52.018;4.202;2024-01-06T10:15:53;6.38;;;5.53;;
17864;SDS011;9058;52.018;4.202;2024-01-06T10:18:20;5.55;;;5.15;;
17864;SDS011;9058;52.018;4.202;2024-01-06T10:20:47;7.27;;;6.47;;
17864;SDS011;9058;52.018;4.202;2024-01-06T10:23:14;6.90;;;6.00;;
17864;SDS011;9058;52.018;4.202;2024-01-06T10:25:41;5.25;;;4.75;;
17864;SDS011;9058;52.018;4.202;2024-01-06T10:28:10;6.78;;;6.20;;
17864;SDS011;9058;52.018;4.202;2024-01-06T10:30:37;5.95;;;5.45;;
17864;SDS011;9058;52.018;4.202;2024-01-06T10:33:07;5.97;;;5.57;;
17864;SDS011;9058;52.018;4.202;2024-01-06T10:35:33;5.60;;;5.20;;
17864;SDS011;9058;52.018;4.202;2024-01-06T10:38:01;5.18;;;4.78;;
17864;SDS011;9058;52.018;4.202;2024-01-06T10:40:29;7.22;;;5.47;;
17864;SDS011;9058;52.018;4.202;2024-01-06T10:42:56;5.55;;;5.25;;
17864;SDS011;9058;52.018;4.202;2024-01-06T10:45:25;5.88;;;5.40;;
17864;SDS011;9058;52.018;4.202;2024-01-06T10:47:53;7.20;;;6.40;;
17864;SDS011;9058;52.018;4.202;2024-01-06T10:50:20;4.82;;;4.43;;
17864;SDS011;9058;52.018;4.202;2024-01-06T10:52:48;5.13;;;4.80;;
17864;SDS011;9058;52.018;4.202;2024-01-06T10:55:15;5.95;;;5.65;;
17864;SDS011;9058;52.018;4.202;2024-01-06T10:57:44;5.63;;;5.07;;
17864;SDS011;9058;52.018;4.202;2024-01-06T11:00:10;5.63;;;5.15;;
17864;SDS011;9058;52.018;4.202;2024-01-06T11:02:38;5.82;;;5.43;;
17864;SDS011;9058;52.018;4.202;2024-01-06T11:05:05;8.15;;;4.95;;
17864;SDS011;9058;52.018;4.202;2024-01-06T11:07:33;5.27;;;4.67;;
17864;SDS011;9058;52.018;4.202;2024-01-06T11:10:01;5.68;;;5.18;;
17864;SDS011;9058;52.018;4.202;2024-01-06T11:12:28;4.63;;;4.32;;
17864;SDS011;9058;52.018;4.202;2024-01-06T11:14:56;5.68;;;5.28;;
17864;SDS011;9058;52.018;4.202;2024-01-06T11:20:07;5.05;;;4.72;;
17864;SDS011;9058;52.018;4.202;2024-01-06T11:22:35;5.30;;;4.95;;
17864;SDS011;9058;52.018;4.202;2024-01-06T11:25:05;4.40;;;4.07;;
17864;SDS011;9058;52.018;4.202;2024-01-06T11:27:32;5.65;;;5.15;;
17864;SDS011;9058;52.018;4.202;2024-01-06T11:30:00;5.18;;;4.82;;
17864;SDS011;9058;52.018;4.202;2024-01-06T11:32:30;5.10;;;4.55;;
17864;SDS011;9058;52.018;4.202;2024-01-06T11:35:04;4.95;;;4.68;;
17864;SDS011;9058;52.018;4.202;2024-01-06T11:37:34;4.57;;;4.30;;
17864;SDS011;9058;52.018;4.202;2024-01-06T11:40:02;5.05;;;4.72;;
17864;SDS011;9058;52.018;4.202;2024-01-06T11:42:31;4.22;;;4.00;;
17864;SDS011;9058;52.018;4.202;2024-01-06T11:45:02;4.45;;;4.20;;
17864;SDS011;9058;52.018;4.202;2024-01-06T11:47:30;3.67;;;3.58;;
17864;SDS011;9058;52.018;4.202;2024-01-06T11:49:58;4.13;;;3.83;;
17864;SDS011;9058;52.018;4.202;2024-01-06T11:52:25;4.47;;;4.25;;
17864;SDS011;9058;52.018;4.202;2024-01-06T11:54:53;3.78;;;3.58;;
17864;SDS011;9058;52.018;4.202;2024-01-06T11:57:20;4.97;;;3.72;;
17864;SDS011;9058;52.018;4.202;2024-01-06T11:59:47;4.25;;;3.85;;
17864;SDS011;9058;52.018;4.202;2024-01-06T12:02:17;5.35;;;3.83;;
17864;SDS011;9058;52.018;4.202;2024-01-06T12:04:46;6.03;;;5.15;;
17864;SDS011;9058;52.018;4.202;2024-01-06T12:07:15;5.22;;;4.82;;
17864;SDS011;9058;52.018;4.202;2024-01-06T12:09:41;4.13;;;3.92;;
17864;SDS011;9058;52.018;4.202;2024-01-06T12:12:08;4.32;;;4.13;;
17864;SDS011;9058;52.018;4.202;2024-01-06T12:14:36;5.13;;;4.50;;
17864;SDS011;9058;52.018;4.202;2024-01-06T12:17:04;4.32;;;4.07;;
17864;SDS011;9058;52.018;4.202;2024-01-06T12:19:32;5.18;;;3.80;;
17864;SDS011;9058;52.018;4.202;2024-01-06T12:21:59;5.97;;;4.13;;
17864;SDS011;9058;52.018;4.202;2024-01-06T12:24:27;4.05;;;3.78;;
17864;SDS011;9058;52.018;4.202;2024-01-06T12:26:55;4.63;;;4.18;;
17864;SDS011;9058;52.018;4.202;2024-01-06T12:29:23;4.38;;;3.92;;
17864;SDS011;9058;52.018;4.202;2024-01-06T12:31:52;4.07;;;3.78;;
17864;SDS011;9058;52.018;4.202;2024-01-06T12:34:18;5.30;;;5.00;;
17864;SDS011;9058;52.018;4.202;2024-01-06T12:36:47;4.97;;;3.95;;
17864;SDS011;9058;52.018;4.202;2024-01-06T12:39:15;4.90;;;4.47;;
17864;SDS011;9058;52.018;4.202;2024-01-06T12:41:42;6.07;;;4.20;;
17864;SDS011;9058;52.018;4.202;2024-01-06T12:44:08;5.30;;;4.65;;
17864;SDS011;9058;52.018;4.202;2024-01-06T12:46:35;4.95;;;4.65;;
17864;SDS011;9058;52.018;4.202;2024-01-06T12:49:01;5.85;;;5.40;;
17864;SDS011;9058;52.018;4.202;2024-01-06T12:51:28;6.25;;;5.75;;
17864;SDS011;9058;52.018;4.202;2024-01-06T12:53:56;4.75;;;4.35;;
17864;SDS011;9058;52.018;4.202;2024-01-06T12:56:22;4.95;;;4.00;;
17864;SDS011;9058;52.018;4.202;2024-01-06T12:58:48;4.00;;;3.60;;
17864;SDS011;9058;52.018;4.202;2024-01-06T13:01:16;4.85;;;4.38;;
17864;SDS011;9058;52.018;4.202;2024-01-06T13:03:43;5.63;;;4.50;;
17864;SDS011;9058;52.018;4.202;2024-01-06T13:06:11;5.22;;;4.75;;
17864;SDS011;9058;52.018;4.202;2024-01-06T13:08:38;5.30;;;4.90;;
17864;SDS011;9058;52.018;4.202;2024-01-06T13:11:06;5.00;;;4.55;;
17864;SDS011;9058;52.018;4.202;2024-01-06T13:13:32;6.13;;;5.30;;
17864;SDS011;9058;52.018;4.202;2024-01-06T13:15:59;5.38;;;5.03;;
17864;SDS011;9058;52.018;4.202;2024-01-06T13:18:28;5.40;;;4.97;;
17864;SDS011;9058;52.018;4.202;2024-01-06T13:20:54;5.97;;;5.43;;
17864;SDS011;9058;52.018;4.202;2024-01-06T13:23:22;6.72;;;5.25;;
17864;SDS011;9058;52.018;4.202;2024-01-06T13:25:48;6.05;;;5.45;;
17864;SDS011;9058;52.018;4.202;2024-01-06T13:28:16;5.25;;;4.95;;
17864;SDS011;9058;52.018;4.202;2024-01-06T13:30:42;5.07;;;4.63;;
17864;SDS011;9058;52.018;4.202;2024-01-06T13:33:09;4.72;;;4.07;;
17864;SDS011;9058;52.018;4.202;2024-01-06T13:35:35;5.22;;;4.82;;
17864;SDS011;9058;52.018;4.202;2024-01-06T13:38:02;4.97;;;4.57;;
17864;SDS011;9058;52.018;4.202;2024-01-06T13:40:30;5.15;;;4.32;;
17864;SDS011;9058;52.018;4.202;2024-01-06T13:42:57;5.57;;;5.27;;
17864;SDS011;9058;52.018;4.202;2024-01-06T13:45:25;4.57;;;4.38;;
17864;SDS011;9058;52.018;4.202;2024-01-06T13:47:51;8.80;;;5.10;;
17864;SDS011;9058;52.018;4.202;2024-01-06T13:50:19;7.75;;;5.10;;
17864;SDS011;9058;52.018;4.202;2024-01-06T13:52:45;5.00;;;4.70;;
17864;SDS011;9058;52.018;4.202;2024-01-06T13:55:12;5.18;;;4.78;;
17864;SDS011;9058;52.018;4.202;2024-01-06T13:57:38;5.03;;;4.43;;
17864;SDS011;9058;52.018;4.202;2024-01-06T14:00:06;5.75;;;5.45;;
17864;SDS011;9058;52.018;4.202;2024-01-06T14:02:34;4.73;;;4.37;;
17864;SDS011;9058;52.018;4.202;2024-01-06T14:05:01;5.30;;;4.90;;
17864;SDS011;9058;52.018;4.202;2024-01-06T14:07:32;4.80;;;4.32;;
17864;SDS011;9058;52.018;4.202;2024-01-06T14:09:58;9.52;;;5.00;;
17864;SDS011;9058;52.018;4.202;2024-01-06T14:12:25;5.50;;;5.22;;
17864;SDS011;9058;52.018;4.202;2024-01-06T14:14:51;5.47;;;5.03;;
17864;SDS011;9058;52.018;4.202;2024-01-06T14:17:18;7.05;;;6.43;;
17864;SDS011;9058;52.018;4.202;2024-01-06T14:19:46;31.02;;;17.95;;
17864;SDS011;9058;52.018;4.202;2024-01-06T14:22:12;26.15;;;18.83;;
17864;SDS011;9058;52.018;4.202;2024-01-06T14:24:40;18.55;;;16.52;;
17864;SDS011;9058;52.018;4.202;2024-01-06T14:27:06;7.13;;;6.53;;
17864;SDS011;9058;52.018;4.202;2024-01-06T14:29:32;6.45;;;5.63;;
17864;SDS011;9058;52.018;4.202;2024-01-06T14:32:00;5.47;;;5.00;;
17864;SDS011;9058;52.018;4.202;2024-01-06T14:34:27;5.10;;;4.40;;
17864;SDS011;9058;52.018;4.202;2024-01-06T14:36:55;4.45;;;4.05;;
17864;SDS011;9058;52.018;4.202;2024-01-06T14:39:21;4.70;;;4.43;;
17864;SDS011;9058;52.018;4.202;2024-01-06T14:41:48;4.93;;;4.40;;
17864;SDS011;9058;52.018;4.202;2024-01-06T14:44:14;6.00;;;5.43;;
17864;SDS011;9058;52.018;4.202;2024-01-06T14:46:39;4.93;;;4.63;;
17864;SDS011;9058;52.018;4.202;2024-01-06T14:49:06;5.35;;;4.95;;
17864;SDS011;9058;52.018;4.202;2024-01-06T14:51:33;5.32;;;4.47;;
17864;SDS011;9058;52.018;4.202;2024-01-06T14:54:01;5.75;;;5.13;;
17864;SDS011;9058;52.018;4.202;2024-01-06T14:56:28;5.88;;;4.93;;
17864;SDS011;9058;52.018;4.202;2024-01-06T15:01:58;4.60;;;4.20;;
17864;SDS011;9058;52.018;4.202;2024-01-06T15:04:24;4.97;;;4.68;;